createdAt,value
2022-12-28T00:01:10.147Z,4.32
2022-12-28T00:03:42.388Z,4.31
2022-12-28T00:06:12.468Z,4.29
2022-12-28T00:08:42.507Z,4.31
2022-12-28T00:11:27.485Z,4.31
2022-12-28T00:14:01.290Z,4.24
2022-12-28T00:16:32.625Z,4.21
2022-12-28T00:19:06.852Z,4.24
2022-12-28T00:21:37.176Z,4.24
2022-12-28T00:24:07.900Z,4.23
2022-12-28T00:26:38.283Z,4.26
2022-12-28T00:29:07.872Z,4.22
2022-12-28T00:31:37.434Z,4.28
2022-12-28T00:34:09.581Z,4.21
2022-12-28T00:37:08.924Z,4.20
2022-12-28T00:39:28.564Z,4.26
2022-12-28T00:41:58.050Z,4.18
2022-12-28T00:44:27.602Z,4.17
2022-12-28T00:46:57.098Z,4.19
2022-12-28T00:49:29.164Z,4.18
2022-12-28T00:51:58.675Z,4.23
2022-12-28T00:54:29.187Z,4.18
2022-12-28T00:56:58.651Z,4.22
2022-12-28T00:59:29.219Z,4.18
2022-12-28T01:01:58.878Z,4.21
2022-12-28T01:04:30.960Z,4.19
2022-12-28T01:07:00.492Z,4.23
2022-12-28T01:09:30.148Z,4.21
2022-12-28T01:11:59.594Z,4.19
2022-12-28T01:14:30.035Z,4.23
2022-12-28T01:16:59.577Z,4.17
2022-12-28T01:19:31.804Z,4.19
2022-12-28T01:22:01.361Z,4.23
2022-12-28T01:24:30.807Z,4.24
2022-12-28T01:27:00.353Z,4.25
2022-12-28T01:29:29.870Z,4.22
2022-12-28T01:31:59.348Z,4.23
2022-12-28T01:34:31.554Z,4.29
2022-12-28T01:37:01.038Z,4.24
2022-12-28T01:39:30.561Z,4.29
2022-12-28T01:42:00.069Z,4.22
2022-12-28T01:44:45.335Z,4.22
2022-12-28T01:47:17.713Z,4.19
2022-12-28T01:50:02.938Z,4.17
2022-12-28T01:52:36.443Z,4.21
2022-12-28T01:55:09.221Z,4.16
2022-12-28T01:57:43.358Z,4.16
2022-12-28T02:00:16.122Z,4.18
2022-12-28T02:02:50.203Z,4.19
2022-12-28T02:05:23.405Z,4.15
2022-12-28T02:07:56.799Z,4.12
2022-12-28T02:10:42.996Z,4.07
2022-12-28T02:13:18.232Z,4.08
2022-12-28T02:15:48.543Z,4.05
2022-12-28T02:18:18.918Z,3.99
2022-12-28T02:21:15.760Z,3.98
2022-12-28T02:24:04.572Z,3.92
2022-12-28T02:26:51.195Z,3.86
2022-12-28T02:29:33.836Z,3.77
2022-12-28T02:32:09.406Z,3.65
2022-12-28T02:34:43.587Z,3.62
2022-12-28T02:37:16.129Z,3.56
2022-12-28T02:39:47.857Z,3.55
2022-12-28T02:42:18.761Z,3.54
2022-12-28T02:45:03.431Z,3.57
2022-12-28T02:47:45.280Z,3.48
2022-12-28T02:50:17.283Z,3.50
2022-12-28T02:53:27.946Z,3.43
2022-12-28T02:56:07.232Z,3.38
2022-12-28T02:59:12.818Z,3.36
2022-12-28T03:02:03.507Z,3.30
2022-12-28T03:04:40.274Z,3.27
2022-12-28T03:07:25.807Z,3.24
2022-12-28T03:09:58.994Z,3.27
2022-12-28T03:12:31.219Z,3.18
2022-12-28T03:15:05.868Z,3.15
2022-12-28T03:17:51.480Z,3.18
2022-12-28T03:20:38.260Z,3.15
2022-12-28T03:23:21.300Z,3.15
2022-12-28T03:26:03.918Z,3.12
2022-12-28T03:28:47.339Z,3.18
2022-12-28T03:31:19.810Z,3.16
2022-12-28T03:33:53.204Z,3.15
2022-12-28T03:36:26.118Z,3.09
2022-12-28T03:39:01.789Z,3.07
2022-12-28T03:41:35.671Z,3.07
2022-12-28T03:44:08.103Z,3.16
2022-12-28T03:46:42.441Z,3.18
2022-12-28T03:49:14.937Z,3.10
2022-12-28T03:51:44.782Z,3.13
2022-12-28T03:54:17.115Z,3.21
2022-12-28T03:56:49.041Z,3.16
2022-12-28T03:59:18.880Z,3.19
2022-12-28T04:01:48.393Z,3.18
2022-12-28T04:04:20.491Z,3.17
2022-12-28T04:06:50.091Z,3.13
2022-12-28T04:09:19.544Z,3.10
2022-12-28T04:11:49.285Z,3.10
2022-12-28T04:14:18.699Z,3.16
2022-12-28T04:16:48.106Z,3.19
2022-12-28T04:19:20.148Z,3.15
2022-12-28T04:21:49.524Z,3.15
2022-12-28T04:24:19.237Z,3.14
2022-12-28T04:26:48.612Z,3.10
2022-12-28T04:29:18.048Z,3.11
2022-12-28T04:31:47.529Z,3.07
2022-12-28T04:34:22.298Z,3.06
2022-12-28T04:36:51.656Z,3.07
2022-12-28T04:39:21.064Z,3.07
2022-12-28T04:41:50.546Z,3.15
2022-12-28T04:44:19.969Z,3.12
2022-12-28T04:46:49.476Z,3.07
2022-12-28T04:49:19.003Z,3.14
2022-12-28T04:51:50.967Z,3.14
2022-12-28T04:54:20.486Z,3.16
2022-12-28T04:56:49.889Z,3.10
2022-12-28T04:59:19.355Z,3.05
2022-12-28T05:01:49.188Z,3.10
2022-12-28T05:04:18.681Z,3.09
2022-12-28T05:06:48.278Z,3.13
2022-12-28T05:09:20.341Z,3.02
2022-12-28T05:11:49.757Z,3.01
2022-12-28T05:14:19.304Z,3.01
2022-12-28T05:16:48.696Z,2.97
2022-12-28T05:19:18.165Z,2.97
2022-12-28T05:21:47.663Z,2.99
2022-12-28T05:24:20.493Z,2.95
2022-12-28T05:26:49.889Z,3.01
2022-12-28T05:29:19.294Z,2.94
2022-12-28T05:31:48.798Z,2.94
2022-12-28T05:34:18.242Z,2.97
2022-12-28T05:36:47.645Z,3.00
2022-12-28T05:39:17.101Z,2.99
2022-12-28T05:41:49.159Z,3.02
2022-12-28T05:44:18.559Z,3.00
2022-12-28T05:46:48.037Z,2.99
2022-12-28T05:49:17.433Z,3.03
2022-12-28T05:51:46.865Z,3.03
2022-12-28T05:54:16.262Z,3.06
2022-12-28T05:56:45.639Z,3.07
2022-12-28T05:59:17.642Z,3.08
2022-12-28T06:01:47.769Z,3.18
2022-12-28T06:04:19.436Z,3.15
2022-12-28T06:06:50.077Z,3.19
2022-12-28T06:09:19.513Z,3.15
2022-12-28T06:11:48.998Z,3.20
2022-12-28T06:14:21.021Z,3.19
2022-12-28T06:16:51.614Z,3.22
2022-12-28T06:19:21.085Z,3.23
2022-12-28T06:21:50.487Z,3.25
2022-12-28T06:24:19.875Z,3.25
2022-12-28T06:26:51.193Z,3.28
2022-12-28T06:29:24.206Z,3.35
2022-12-28T06:31:54.845Z,3.35
2022-12-28T06:34:24.298Z,3.37
2022-12-28T06:36:53.983Z,3.37
2022-12-28T06:39:23.572Z,3.38
2022-12-28T06:41:52.991Z,3.41
2022-12-28T06:44:25.042Z,3.41
2022-12-28T06:46:54.427Z,3.46
2022-12-28T06:49:23.836Z,3.49
2022-12-28T06:51:53.514Z,3.46
2022-12-28T06:54:22.939Z,3.47
2022-12-28T06:56:52.319Z,3.51
2022-12-28T06:59:21.795Z,3.51
2022-12-28T07:01:54.181Z,3.53
2022-12-28T07:04:23.699Z,3.55
2022-12-28T07:06:53.093Z,3.63
2022-12-28T07:09:22.847Z,3.62
2022-12-28T07:11:52.824Z,3.69
2022-12-28T07:14:22.290Z,3.70
2022-12-28T07:16:54.275Z,3.70
2022-12-28T07:19:23.648Z,3.75
2022-12-28T07:21:53.289Z,3.77
2022-12-28T07:24:22.675Z,3.76
2022-12-28T07:26:52.300Z,3.78
2022-12-28T07:29:21.815Z,3.76
2022-12-28T07:31:53.827Z,3.77
2022-12-28T07:34:23.499Z,3.79
2022-12-28T07:36:52.998Z,3.83
2022-12-28T07:39:22.425Z,3.83
2022-12-28T07:41:51.825Z,3.86
2022-12-28T07:44:21.217Z,3.87
2022-12-28T07:46:50.592Z,3.90
2022-12-28T07:49:22.628Z,3.94
2022-12-28T07:51:52.045Z,3.97
2022-12-28T07:54:21.450Z,4.04
2022-12-28T07:56:50.862Z,4.07
2022-12-28T07:59:20.378Z,4.10
2022-12-28T08:01:52.836Z,4.13
2022-12-28T08:04:24.933Z,4.17
2022-12-28T08:06:54.370Z,4.23
2022-12-28T08:09:24.077Z,4.29
2022-12-28T08:11:53.543Z,4.31
2022-12-28T08:14:22.926Z,4.35
2022-12-28T08:16:52.342Z,4.37
2022-12-28T08:19:21.827Z,4.38
2022-12-28T08:21:54.584Z,4.45
2022-12-28T08:24:24.299Z,4.46
2022-12-28T08:26:53.701Z,4.49
2022-12-28T08:29:25.647Z,4.53
2022-12-28T08:31:55.048Z,4.55
2022-12-28T08:34:27.216Z,4.59
2022-12-28T08:36:59.650Z,4.66
2022-12-28T08:39:29.353Z,4.71
2022-12-28T08:41:58.809Z,4.71
2022-12-28T08:44:28.265Z,4.73
2022-12-28T08:46:58.474Z,4.75
2022-12-28T08:49:27.946Z,4.77
2022-12-28T08:52:00.442Z,4.79
2022-12-28T08:54:29.842Z,4.84
2022-12-28T08:56:59.269Z,4.90
2022-12-28T08:59:28.750Z,4.91
2022-12-28T09:01:58.233Z,4.96
2022-12-28T09:04:27.689Z,4.98
2022-12-28T09:06:59.781Z,5.02
2022-12-28T09:09:29.230Z,5.07
2022-12-28T09:11:58.616Z,5.10
2022-12-28T09:14:28.072Z,5.14
2022-12-28T09:16:57.475Z,5.21
2022-12-28T09:19:26.913Z,5.24
2022-12-28T09:21:56.443Z,5.27
2022-12-28T09:24:28.521Z,5.32
2022-12-28T09:26:57.968Z,5.34
2022-12-28T09:29:27.448Z,5.40
2022-12-28T09:31:57.918Z,5.44
2022-12-28T09:34:37.306Z,5.46
2022-12-28T09:37:07.702Z,5.46
2022-12-28T09:39:39.966Z,5.51
2022-12-28T09:42:13.807Z,5.57
2022-12-28T09:44:48.814Z,5.61
2022-12-28T09:47:23.013Z,5.64
2022-12-28T09:50:25.085Z,5.69
2022-12-28T09:53:10.107Z,5.74
2022-12-28T09:55:43.787Z,5.80
2022-12-28T09:58:17.504Z,5.79
2022-12-28T10:00:49.072Z,5.83
2022-12-28T10:03:19.826Z,5.85
2022-12-28T10:05:49.603Z,5.84
2022-12-28T10:08:23.972Z,5.89
2022-12-28T10:10:56.789Z,5.90
2022-12-28T10:16:20.572Z,5.97
2022-12-28T10:18:53.585Z,5.95
2022-12-28T10:21:31.940Z,5.98
2022-12-28T10:26:54.827Z,6.03
2022-12-28T10:29:26.336Z,6.02
2022-12-28T10:32:01.422Z,6.03
2022-12-28T10:34:34.163Z,6.06
2022-12-28T10:37:14.446Z,6.06
2022-12-28T10:39:51.429Z,6.08
2022-12-28T10:42:27.806Z,6.11
2022-12-28T10:45:02.688Z,6.15
2022-12-28T10:47:35.600Z,6.18
2022-12-28T10:53:00.087Z,6.25
2022-12-28T10:55:31.049Z,6.30
2022-12-28T10:58:30.098Z,6.44
2022-12-28T11:01:02.866Z,6.43
2022-12-28T11:03:37.624Z,6.47
2022-12-28T11:06:12.202Z,6.53
2022-12-28T11:08:42.832Z,6.55
2022-12-28T11:11:20.955Z,6.57
2022-12-28T11:13:55.243Z,6.59
2022-12-28T11:16:24.782Z,6.58
2022-12-28T11:18:54.369Z,6.59
2022-12-28T11:21:25.431Z,6.58
2022-12-28T11:23:55.455Z,6.58
2022-12-28T11:26:25.092Z,6.57
2022-12-28T11:28:57.491Z,6.58
2022-12-28T11:31:30.905Z,6.59
2022-12-28T11:34:03.472Z,6.59
2022-12-28T11:36:34.529Z,6.60
2022-12-28T11:39:34.348Z,6.60
2022-12-28T11:42:38.290Z,6.58
2022-12-28T11:44:57.024Z,6.57
2022-12-28T11:47:35.622Z,6.53
2022-12-28T11:50:38.237Z,6.50
2022-12-28T11:53:22.899Z,6.51
2022-12-28T11:56:08.466Z,6.48
2022-12-28T11:58:47.821Z,6.48
2022-12-28T12:01:46.931Z,6.50
2022-12-28T12:04:22.613Z,6.46
2022-12-28T12:07:10.805Z,6.47
2022-12-28T12:09:45.184Z,6.48
2022-12-28T12:12:39.462Z,6.47
2022-12-28T12:15:21.367Z,6.49
2022-12-28T12:17:56.945Z,6.49
2022-12-28T12:20:31.812Z,6.55
2022-12-28T12:23:05.164Z,6.52
2022-12-28T12:25:39.168Z,6.60
2022-12-28T12:28:13.514Z,6.53
2022-12-28T12:30:45.253Z,6.62
2022-12-28T12:33:21.433Z,6.59
2022-12-28T12:35:59.369Z,6.59
2022-12-28T12:38:40.777Z,6.62
2022-12-28T12:41:20.932Z,6.64
2022-12-28T12:44:02.035Z,6.64
2022-12-28T12:47:10.129Z,6.64
2022-12-28T12:50:05.475Z,6.65
2022-12-28T12:52:42.487Z,6.64
2022-12-28T12:55:23.830Z,6.65
2022-12-28T12:58:00.723Z,6.67
2022-12-28T13:00:35.087Z,6.65
2022-12-28T13:03:18.187Z,6.68
2022-12-28T13:05:55.025Z,6.69
2022-12-28T13:08:28.337Z,6.70
2022-12-28T13:10:58.190Z,6.73
2022-12-28T13:13:34.438Z,6.73
2022-12-28T13:16:05.997Z,6.73
2022-12-28T13:18:50.882Z,6.71
2022-12-28T13:21:24.156Z,6.74
2022-12-28T13:23:54.429Z,6.76
2022-12-28T13:26:29.593Z,6.77
2022-12-28T13:29:02.144Z,6.76
2022-12-28T13:31:35.856Z,6.75
2022-12-28T13:34:07.218Z,6.75
2022-12-28T13:36:49.624Z,6.74
2022-12-28T13:39:21.581Z,6.76
2022-12-28T13:41:52.808Z,6.75
2022-12-28T13:44:35.963Z,6.77
2022-12-28T13:47:08.756Z,6.78
2022-12-28T13:49:41.678Z,6.79
2022-12-28T13:52:17.629Z,6.80
2022-12-28T13:54:49.279Z,6.81
2022-12-28T13:57:45.915Z,6.81
2022-12-28T14:00:11.435Z,6.81
2022-12-28T14:02:42.766Z,6.83
2022-12-28T14:05:18.875Z,6.85
2022-12-28T14:07:51.169Z,6.84
2022-12-28T14:10:21.291Z,6.82
2022-12-28T14:12:51.500Z,6.84
2022-12-28T14:15:21.593Z,6.83
2022-12-28T14:17:52.752Z,6.82
2022-12-28T14:20:23.333Z,6.83
2022-12-28T14:22:55.582Z,6.83
2022-12-28T14:25:25.565Z,6.85
2022-12-28T14:27:59.580Z,6.84
2022-12-28T14:30:31.488Z,6.81
2022-12-28T14:33:07.099Z,6.83
2022-12-28T14:35:47.753Z,6.82
2022-12-28T14:38:23.904Z,6.81
2022-12-28T14:40:57.713Z,6.80
2022-12-28T14:43:29.338Z,6.78
2022-12-28T14:46:06.629Z,6.81
2022-12-28T14:48:40.800Z,6.81
2022-12-28T14:51:30.016Z,6.79
2022-12-28T14:54:24.137Z,6.80
2022-12-28T14:56:56.806Z,6.77
2022-12-28T14:59:29.480Z,6.79
2022-12-28T15:01:59.216Z,6.75
2022-12-28T15:04:39.091Z,6.77
2022-12-28T15:07:10.266Z,6.79
2022-12-28T15:09:42.460Z,6.77
2022-12-28T15:12:15.025Z,6.74
2022-12-28T15:14:44.562Z,6.72
2022-12-28T15:17:14.094Z,6.75
2022-12-28T15:19:45.197Z,6.75
2022-12-28T15:22:14.769Z,6.73
2022-12-28T15:24:48.856Z,6.71
2022-12-28T15:27:18.410Z,6.69
2022-12-28T15:30:04.882Z,6.68
2022-12-28T15:32:34.810Z,6.75
2022-12-28T15:35:04.298Z,6.69
2022-12-28T15:37:33.841Z,6.69
2022-12-28T15:40:06.738Z,6.67
2022-12-28T15:42:40.385Z,6.70
2022-12-28T15:45:11.831Z,6.71
2022-12-28T15:47:41.567Z,6.69
2022-12-28T15:50:12.461Z,6.71
2022-12-28T15:52:42.034Z,6.70
2022-12-28T15:55:14.270Z,6.69
2022-12-28T15:57:44.040Z,6.72
2022-12-28T16:00:18.868Z,6.72
2022-12-28T16:02:48.904Z,6.72
2022-12-28T16:05:18.525Z,6.73
2022-12-28T16:07:47.968Z,6.76
2022-12-28T16:10:20.340Z,6.75
2022-12-28T16:12:49.791Z,6.72
2022-12-28T16:15:19.418Z,6.72
2022-12-28T16:17:56.693Z,6.74
2022-12-28T16:20:26.954Z,6.72
2022-12-28T16:22:56.454Z,6.73
2022-12-28T16:25:28.458Z,6.73
2022-12-28T16:27:58.018Z,6.74
2022-12-28T16:30:28.185Z,6.74
2022-12-28T16:32:57.968Z,6.76
2022-12-28T16:35:27.534Z,6.75
2022-12-28T16:37:57.311Z,6.79
2022-12-28T16:40:29.408Z,6.77
2022-12-28T16:42:58.910Z,6.78
2022-12-28T16:45:28.459Z,6.76
2022-12-28T16:47:57.949Z,6.77
2022-12-28T16:50:27.542Z,6.82
2022-12-28T16:53:00.873Z,6.80
2022-12-28T16:55:35.286Z,6.78
2022-12-28T16:58:04.764Z,6.74
2022-12-28T17:00:34.560Z,6.72
2022-12-28T17:03:05.347Z,6.73
2022-12-28T17:05:36.051Z,6.70
2022-12-28T17:08:06.546Z,6.71
2022-12-28T17:10:38.648Z,6.71
2022-12-28T17:13:08.123Z,6.68
2022-12-28T17:15:37.737Z,6.65
2022-12-28T17:18:07.463Z,6.66
2022-12-28T17:20:39.159Z,6.65
2022-12-28T17:23:09.369Z,6.65
2022-12-28T17:25:43.733Z,6.62
2022-12-28T17:28:13.141Z,6.61
2022-12-28T17:30:43.023Z,6.62
2022-12-28T17:33:14.252Z,6.59
2022-12-28T17:35:44.253Z,6.64
2022-12-28T17:38:13.778Z,6.60
2022-12-28T17:40:45.852Z,6.64
2022-12-28T17:43:15.330Z,6.58
2022-12-28T17:45:44.898Z,6.60
2022-12-28T17:48:14.409Z,6.62
2022-12-28T17:50:45.860Z,6.61
2022-12-28T17:53:15.375Z,6.61
2022-12-28T17:55:47.477Z,6.62
2022-12-28T17:58:17.089Z,6.61
2022-12-28T18:00:46.591Z,6.66
2022-12-28T18:03:16.183Z,6.62
2022-12-28T18:05:45.696Z,6.67
2022-12-28T18:08:15.147Z,6.66
2022-12-28T18:10:47.561Z,6.67
2022-12-28T18:13:17.787Z,6.71
2022-12-28T18:15:49.086Z,6.68
2022-12-28T18:18:19.987Z,6.70
2022-12-28T18:20:58.947Z,6.71
2022-12-28T18:23:28.453Z,6.70
2022-12-28T18:26:06.024Z,6.69
2022-12-28T18:28:36.455Z,6.71
2022-12-28T18:31:07.076Z,6.69
2022-12-28T18:33:37.090Z,6.68
2022-12-28T18:36:16.809Z,6.64
2022-12-28T18:38:47.617Z,6.68
2022-12-28T18:41:21.483Z,6.69
2022-12-28T18:43:51.509Z,6.67
2022-12-28T18:46:21.222Z,6.76
2022-12-28T18:48:50.686Z,6.73
2022-12-28T18:51:20.908Z,6.67
2022-12-28T18:53:50.906Z,6.68
2022-12-28T18:56:24.001Z,6.74
2022-12-28T18:58:54.745Z,6.77
2022-12-28T19:02:04.804Z,6.72
2022-12-28T19:04:15.797Z,6.74
2022-12-28T19:06:46.273Z,6.73
2022-12-28T19:09:16.061Z,6.77
2022-12-28T19:11:48.115Z,6.72
2022-12-28T19:14:19.752Z,6.77
2022-12-28T19:16:49.391Z,6.77
2022-12-28T19:19:20.502Z,6.73
2022-12-28T19:21:56.594Z,6.78
2022-12-28T19:24:28.231Z,6.77
2022-12-28T19:27:00.244Z,6.73
2022-12-28T19:29:31.354Z,6.75
2022-12-28T19:32:01.014Z,6.77
2022-12-28T19:34:30.412Z,6.72
2022-12-28T19:36:59.907Z,6.74
2022-12-28T19:39:29.346Z,6.68
2022-12-28T19:42:01.435Z,6.65
2022-12-28T19:44:30.948Z,6.62
2022-12-28T19:47:00.502Z,6.68
2022-12-28T19:49:30.290Z,6.66
2022-12-28T19:52:02.220Z,6.61
2022-12-28T19:54:31.827Z,6.55
2022-12-28T19:57:03.946Z,6.52
2022-12-28T19:59:33.504Z,6.48
2022-12-28T20:02:03.620Z,6.47
2022-12-28T20:04:33.214Z,6.46
2022-12-28T20:07:02.874Z,6.34
2022-12-28T20:09:32.345Z,6.34
2022-12-28T20:12:04.441Z,6.38
2022-12-28T20:14:34.180Z,6.33
2022-12-28T20:17:03.674Z,6.31
2022-12-28T20:19:33.145Z,6.25
2022-12-28T20:22:02.603Z,6.23
2022-12-28T20:24:32.175Z,6.22
2022-12-28T20:27:04.297Z,6.18
2022-12-28T20:29:33.851Z,6.15
2022-12-28T20:32:03.418Z,6.11
2022-12-28T20:34:34.763Z,6.13
2022-12-28T20:37:04.344Z,6.08
2022-12-28T20:39:33.953Z,6.07
2022-12-28T20:42:18.578Z,6.04
2022-12-28T20:44:48.188Z,6.02
2022-12-28T20:47:17.662Z,5.99
2022-12-28T20:49:47.201Z,5.98
2022-12-28T20:52:16.650Z,5.97
2022-12-28T20:54:46.102Z,5.95
2022-12-28T20:57:18.232Z,5.92
2022-12-28T20:59:47.758Z,5.93
2022-12-28T21:02:17.262Z,5.93
2022-12-28T21:04:46.776Z,5.93
2022-12-28T21:07:16.267Z,5.90
2022-12-28T21:09:50.669Z,5.87
2022-12-28T21:12:22.872Z,5.90
2022-12-28T21:14:52.506Z,5.84
2022-12-28T21:17:21.987Z,5.85
2022-12-28T21:19:51.668Z,5.87
2022-12-28T21:22:21.270Z,5.88
2022-12-28T21:24:50.834Z,5.86
2022-12-28T21:27:22.985Z,5.84
2022-12-28T21:29:52.478Z,5.84
2022-12-28T21:32:22.034Z,5.85
2022-12-28T21:34:51.507Z,5.81
2022-12-28T21:37:33.508Z,5.84
2022-12-28T21:40:03.030Z,5.91
2022-12-28T21:42:35.495Z,5.81
2022-12-28T21:45:05.188Z,5.97
2022-12-28T21:47:34.887Z,5.92
2022-12-28T21:50:04.450Z,5.87
2022-12-28T21:52:34.459Z,5.86
2022-12-28T21:55:24.284Z,5.91
2022-12-28T21:57:59.499Z,5.88
2022-12-28T22:00:41.800Z,5.89
2022-12-28T22:03:23.913Z,5.88
2022-12-28T22:06:06.197Z,5.87
2022-12-28T22:08:48.553Z,5.90
2022-12-28T22:11:30.752Z,5.88
2022-12-28T22:14:02.968Z,5.87
2022-12-28T22:16:34.326Z,5.91
2022-12-28T22:19:04.573Z,5.93
2022-12-28T22:21:36.048Z,5.91
2022-12-28T22:24:05.602Z,5.92
2022-12-28T22:26:35.026Z,5.91
2022-12-28T22:29:07.371Z,5.93
2022-12-28T22:31:36.904Z,5.88
2022-12-28T22:34:07.446Z,5.88
2022-12-28T22:36:37.491Z,5.93
2022-12-28T22:39:07.060Z,5.95
2022-12-28T22:41:36.472Z,5.97
2022-12-28T22:44:08.535Z,5.90
2022-12-28T22:46:38.006Z,5.88
2022-12-28T22:49:07.436Z,5.92
2022-12-28T22:51:36.951Z,5.98
2022-12-28T22:54:06.685Z,5.98
2022-12-28T22:56:36.199Z,6.00
2022-12-28T22:59:13.579Z,6.04
2022-12-28T23:01:45.055Z,6.06
2022-12-28T23:04:14.647Z,6.10
2022-12-28T23:06:44.392Z,6.13
2022-12-28T23:09:13.917Z,6.18
2022-12-28T23:11:43.395Z,6.16
2022-12-28T23:14:29.780Z,6.18
2022-12-28T23:16:59.484Z,6.17
2022-12-28T23:19:42.912Z,6.20
2022-12-28T23:22:28.591Z,6.19
2022-12-28T23:25:10.447Z,6.21
2022-12-28T23:27:43.625Z,6.23
2022-12-28T23:30:18.645Z,6.27
2022-12-28T23:32:48.338Z,6.29
2022-12-28T23:35:19.331Z,6.30
2022-12-28T23:37:48.781Z,6.31
2022-12-28T23:40:20.438Z,6.35
2022-12-28T23:42:49.879Z,6.33
2022-12-28T23:45:21.836Z,6.39
2022-12-28T23:47:51.627Z,6.41
2022-12-28T23:50:22.006Z,6.40
2022-12-28T23:52:51.561Z,6.40
2022-12-28T23:55:20.951Z,6.41
2022-12-28T23:57:50.368Z,6.42
